ESDF/RNB METAR and TAF weather

Enter ICAO airport designator
Station Type Date Time Source
ESDF METAR 2022/01/26 14:20 UTC NOAA

ESDF 261420Z 27010KT 9999 SCT018 BKN039 06/04 Q1013


Station Type Date Time Source
ESDF Decoded METAR 2022/01/26 14:20 UTC NOAA

Ronneby, Sweden (ESDF) 56-16N 015-17E 74M
Jan 26, 2022 - 09:20 AM EST / 2022.01.26 1420 UTC
Wind: from the W (270 degrees) at 12 MPH (10 KT):0
Visibility: greater than 7 mile(s):0
Sky conditions: mostly cloudy
Temperature: 42 F (6 C)
Dew Point: 39 F (4 C)
Relative Humidity: 86%
Pressure (altimeter): 29.91 in. Hg (1013 hPa)
ob: ESDF 261420Z 27010KT 9999 SCT018 BKN039 06/04 Q1013
cycle: 14

Station Type Date Time Source
ESDF TAF 2018/05/29 12:27 UTC NOAA

TAF TAF ESDF 291425Z 2912/2924 07008KT CAVOK
RMK MIL

Example: see airport list